Time;durP1;ratioP1;P1;durP2;ratioP2;P2;SDS_P1;SDS_P2;PMS_P1;PMS_P2;Temp;Humidity;BMP_temperature;BMP_pressure;BME280_temperature;BME280_humidity;BME280_pressure;Samples;Min_cycle;Max_cycle;Signal;HPM_P1;HPM_P2
2022/02/06 00:00:44;;;;;;;2.42;2.22;;;3.70;99.90;;;;;;4983148;28;20204;-53
2022/02/06 00:03:13;;;;;;;6.53;3.35;;;3.70;99.90;;;;;;4982906;28;20355;-51
2022/02/06 00:05:40;;;;;;;4.82;2.42;;;3.60;99.90;;;;;;4982802;28;20279;-51
2022/02/06 00:08:11;;;;;;;5.70;3.78;;;3.80;99.90;;;;;;4982902;28;20205;-53
2022/02/06 00:10:39;;;;;;;5.55;3.28;;;3.70;99.90;;;;;;4982498;28;20201;-54
2022/02/06 00:13:07;;;;;;;4.90;2.80;;;3.70;99.90;;;;;;4982595;28;20511;-51
2022/02/06 00:15:34;;;;;;;2.55;2.20;;;3.60;99.90;;;;;;4982228;28;20606;-55
2022/02/06 00:18:02;;;;;;;6.70;2.50;;;3.60;99.90;;;;;;4982908;28;20208;-54
2022/02/06 00:20:36;;;;;;;3.53;1.65;;;3.60;99.90;;;;;;4982391;28;20208;-49
2022/02/06 00:23:08;;;;;;;3.95;2.42;;;3.70;99.90;;;;;;4982501;28;20263;-49
2022/02/06 00:30:50;;;;;;;6.35;3.00;;;3.80;99.90;;;;;;4982179;28;20248;-51
2022/02/06 00:43:24;;;;;;;5.03;2.15;;;4.00;99.90;;;;;;4981560;28;20224;-48
2022/02/06 00:45:52;;;;;;;2.47;2.22;;;3.90;99.90;;;;;;4981869;28;20221;-49
2022/02/06 00:48:23;;;;;;;4.45;3.28;;;3.80;99.90;;;;;;4981914;28;20204;-50
2022/02/06 00:51:08;;;;;;;3.63;3.03;;;3.80;99.90;;;;;;4981791;28;20232;-49
2022/02/06 00:53:36;;;;;;;8.15;2.45;;;3.70;99.90;;;;;;4981893;28;20209;-50
2022/02/06 00:56:04;;;;;;;6.43;2.97;;;3.50;99.90;;;;;;5046022;22;20255;-51
2022/02/06 00:58:32;;;;;;;4.18;2.53;;;3.60;99.90;;;;;;5080082;28;20196;-48
2022/02/06 01:01:00;;;;;;;2.63;2.40;;;3.40;99.90;;;;;;5080358;28;20508;-47
2022/02/06 01:03:28;;;;;;;3.30;3.05;;;3.40;99.90;;;;;;5080501;28;20280;-50
2022/02/06 01:05:55;;;;;;;7.85;3.55;;;3.40;99.90;;;;;;5081142;28;20423;-45
2022/02/06 01:08:23;;;;;;;3.03;1.98;;;3.40;99.90;;;;;;5081646;28;20197;-47
2022/02/06 01:10:51;;;;;;;4.38;3.13;;;3.30;99.90;;;;;;5080258;28;20235;-47
2022/02/06 01:15:55;;;;;;;3.67;2.33;;;3.30;99.90;;;;;;5080416;28;20216;-46
2022/02/06 01:18:32;;;;;;;5.10;2.42;;;3.20;99.90;;;;;;5080704;28;20348;-47
2022/02/06 01:21:35;;;;;;;5.15;2.90;;;3.30;99.90;;;;;;5080492;28;20398;-48
2022/02/06 01:26:28;;;;;;;5.68;2.17;;;3.50;99.90;;;;;;5080324;28;20223;-45
2022/02/06 01:29:06;;;;;;;3.10;2.38;;;3.40;99.90;;;;;;5080387;28;20203;-47
2022/02/06 01:31:52;;;;;;;6.78;3.70;;;3.30;99.90;;;;;;5080296;28;20208;-48
2022/02/06 01:34:26;;;;;;;5.97;2.53;;;3.30;99.90;;;;;;5080486;28;20201;-47
2022/02/06 01:37:09;;;;;;;4.13;2.88;;;3.30;99.90;;;;;;5080184;28;20304;-47
2022/02/06 01:39:53;;;;;;;4.40;2.50;;;3.30;99.90;;;;;;5080399;28;20200;-49
2022/02/06 01:42:44;;;;;;;5.20;2.75;;;3.40;99.90;;;;;;5080178;28;20513;-45
2022/02/06 02:01:49;;;;;;;3.72;2.35;;;3.70;99.90;;;;;;5086581;28;20217;-49
2022/02/06 02:04:34;;;;;;;10.52;4.22;;;3.80;99.90;;;;;;5086910;28;20251;-45
2022/02/06 02:07:24;;;;;;;1.95;1.85;;;3.80;99.90;;;;;;5086815;28;20384;-46
2022/02/06 02:47:43;;;;;;;2.42;1.85;;;3.60;99.90;;;;;;5088056;28;20197;-50
2022/02/06 02:50:14;;;;;;;4.72;3.38;;;3.60;99.90;;;;;;5089437;28;20252;-48
2022/02/06 02:52:56;;;;;;;3.30;3.00;;;3.70;99.90;;;;;;5091405;28;20220;-49
2022/02/06 03:03:18;;;;;;;3.08;2.53;;;3.90;99.90;;;;;;5090794;28;20201;-50
2022/02/06 03:05:49;;;;;;;2.40;2.20;;;4.00;99.90;;;;;;5088854;28;20252;-45
2022/02/06 03:08:16;;;;;;;4.22;2.35;;;4.10;99.90;;;;;;5086101;28;20202;-48
2022/02/06 03:10:44;;;;;;;1.90;1.70;;;4.00;99.90;;;;;;5085444;28;20245;-47
2022/02/06 03:13:15;;;;;;;3.70;2.08;;;4.10;99.90;;;;;;5086141;28;20202;-50
2022/02/06 03:18:17;;;;;;;2.30;2.10;;;4.20;99.90;;;;;;5088379;28;20303;-51
2022/02/06 03:20:46;;;;;;;4.18;2.58;;;4.20;99.90;;;;;;5089766;28;20201;-50
2022/02/06 03:23:14;;;;;;;2.50;2.05;;;4.20;99.90;;;;;;5087270;28;20208;-50
2022/02/06 03:25:55;;;;;;;5.70;2.65;;;4.30;99.90;;;;;;5086088;28;20318;-48
2022/02/06 03:28:25;;;;;;;3.28;2.90;;;4.30;99.90;;;;;;5086034;28;20206;-50
2022/02/06 03:30:53;;;;;;;2.47;2.38;;;4.30;99.90;;;;;;5085906;28;20205;-46
2022/02/06 03:33:20;;;;;;;2.88;2.58;;;4.40;99.90;;;;;;5086209;28;20197;-48
2022/02/06 03:35:48;;;;;;;4.20;2.90;;;4.40;99.90;;;;;;5082792;28;20233;-51
2022/02/06 03:38:15;;;;;;;2.47;2.22;;;4.40;99.90;;;;;;5066593;28;20201;-50
2022/02/06 03:40:51;;;;;;;5.68;2.80;;;4.40;99.90;;;;;;5084418;28;20201;-52
2022/02/06 03:43:26;;;;;;;3.08;2.10;;;4.40;99.90;;;;;;5083121;28;20512;-47
2022/02/06 03:45:59;;;;;;;4.70;3.20;;;4.50;99.90;;;;;;5082732;28;20225;-50
2022/02/06 03:48:34;;;;;;;4.68;2.97;;;4.60;99.90;;;;;;5085877;28;20220;-49
2022/02/06 03:51:06;;;;;;;3.08;2.00;;;4.60;99.90;;;;;;5084041;28;20231;-44
2022/02/06 03:53:33;;;;;;;3.90;2.22;;;4.60;99.90;;;;;;5083009;28;20197;-49
2022/02/06 03:56:01;;;;;;;2.55;2.28;;;4.50;99.90;;;;;;5083271;28;20288;-49
2022/02/06 03:58:28;;;;;;;3.97;2.92;;;4.40;99.90;;;;;;5064901;28;20201;-48
2022/02/06 04:00:55;;;;;;;3.25;2.40;;;4.50;99.90;;;;;;5082568;28;20213;-44
2022/02/06 04:03:23;;;;;;;2.22;1.98;;;4.50;99.90;;;;;;5082706;28;20559;-46
2022/02/06 04:05:50;;;;;;;5.63;2.42;;;4.50;99.90;;;;;;5082845;28;20415;-48
2022/02/06 04:08:19;;;;;;;3.00;2.15;;;4.50;99.90;;;;;;5082269;28;20497;-51
2022/02/06 04:10:49;;;;;;;3.30;2.70;;;4.50;99.90;;;;;;5081689;28;20202;-46
2022/02/06 04:13:23;;;;;;;1.95;1.80;;;4.50;99.90;;;;;;5081414;28;20210;-47
2022/02/06 04:15:58;;;;;;;2.20;2.00;;;4.40;99.90;;;;;;5081528;28;20221;-49
2022/02/06 04:19:18;;;;;;;3.97;1.83;;;4.40;99.90;;;;;;5080524;28;20224;-46
2022/02/06 04:21:17;;;;;;;2.83;2.15;;;4.40;99.90;;;;;;5071033;28;20381;-46
2022/02/06 04:23:44;;;;;;;1.95;1.65;;;4.50;99.90;;;;;;5081048;28;20508;-47
2022/02/06 04:26:11;;;;;;;4.00;1.80;;;4.50;99.90;;;;;;5081451;28;20343;-49
2022/02/06 04:28:38;;;;;;;5.50;1.45;;;4.40;99.90;;;;;;5081086;28;20239;-48
2022/02/06 04:31:05;;;;;;;2.40;1.77;;;4.40;99.90;;;;;;5081103;28;20204;-46
2022/02/06 04:33:33;;;;;;;2.10;1.92;;;4.50;99.90;;;;;;5081022;28;20234;-47
2022/02/06 04:36:02;;;;;;;2.60;2.13;;;4.50;99.90;;;;;;5081071;28;20213;-49
2022/02/06 04:38:54;;;;;;;1.50;1.35;;;4.50;99.90;;;;;;5081345;28;20449;-45
2022/02/06 04:41:36;;;;;;;1.27;1.17;;;4.50;99.90;;;;;;5081529;28;20206;-45
2022/02/06 04:49:59;;;;;;;1.65;1.55;;;4.60;99.90;;;;;;5080997;28;20202;-45
2022/02/06 05:30:26;;;;;;;4.18;1.45;;;4.70;99.90;;;;;;5079699;28;20206;-47
2022/02/06 05:35:21;;;;;;;1.45;1.35;;;4.70;99.90;;;;;;5080331;28;20417;-48
2022/02/06 05:37:50;;;;;;;1.98;1.30;;;4.70;99.90;;;;;;5080950;28;20395;-50
2022/02/06 05:40:17;;;;;;;2.10;1.90;;;4.80;99.90;;;;;;5080263;28;20411;-47
2022/02/06 05:42:45;;;;;;;1.15;0.88;;;4.80;99.90;;;;;;5080430;28;20416;-47
2022/02/06 05:45:12;;;;;;;1.63;1.35;;;4.80;99.90;;;;;;5080289;28;20226;-45
2022/02/06 05:47:40;;;;;;;0.93;0.90;;;4.90;99.90;;;;;;5083697;28;20432;-47
2022/02/06 05:50:08;;;;;;;1.35;1.00;;;4.90;99.90;;;;;;5085935;28;20220;-53
2022/02/06 05:52:35;;;;;;;1.88;1.13;;;4.90;99.90;;;;;;5086875;28;20208;-47
2022/02/06 05:55:03;;;;;;;3.08;1.30;;;5.00;99.90;;;;;;5086832;28;20203;-48
2022/02/06 05:57:31;;;;;;;1.48;1.13;;;5.00;99.90;;;;;;5086086;28;20258;-51
2022/02/06 05:59:58;;;;;;;2.97;1.30;;;5.00;99.90;;;;;;5080688;28;20470;-47
2022/02/06 06:02:26;;;;;;;1.02;0.90;;;5.00;99.90;;;;;;5079845;28;20610;-47
2022/02/06 06:04:54;;;;;;;1.75;1.65;;;5.00;99.90;;;;;;5080034;28;20564;-46
2022/02/06 06:07:21;;;;;;;0.80;0.80;;;5.00;99.90;;;;;;5079855;28;20218;-47
2022/02/06 06:09:48;;;;;;;1.90;1.70;;;5.00;99.90;;;;;;5080035;28;20198;-47
2022/02/06 06:12:15;;;;;;;1.38;1.25;;;5.00;99.90;;;;;;5079504;28;20205;-49
2022/02/06 06:14:46;;;;;;;2.35;1.83;;;4.80;99.90;;;;;;5079789;28;20463;-49
2022/02/06 06:17:13;;;;;;;1.90;1.80;;;4.90;99.90;;;;;;5079642;28;20524;-46
2022/02/06 06:19:45;;;;;;;1.35;1.23;;;5.10;99.90;;;;;;5079677;28;20291;-46
2022/02/06 06:22:13;;;;;;;1.00;0.90;;;5.10;99.90;;;;;;5079476;28;20686;-49
2022/02/06 06:24:44;;;;;;;1.27;1.17;;;5.00;99.90;;;;;;5080043;28;20244;-46
2022/02/06 06:27:12;;;;;;;1.05;0.95;;;4.90;99.90;;;;;;5080804;28;20354;-47
2022/02/06 06:29:39;;;;;;;1.80;0.90;;;4.90;99.90;;;;;;5082356;28;20197;-49
2022/02/06 06:32:07;;;;;;;1.00;1.00;;;4.90;99.90;;;;;;5081894;28;20396;-47
2022/02/06 06:34:35;;;;;;;0.82;0.82;;;5.00;99.90;;;;;;5082391;28;20205;-52
2022/02/06 06:37:02;;;;;;;1.25;0.95;;;5.00;99.90;;;;;;5079466;28;20409;-50
2022/02/06 06:39:40;;;;;;;0.75;0.75;;;5.10;99.90;;;;;;5081116;28;20226;-50
2022/02/06 06:42:08;;;;;;;1.55;1.08;;;5.10;99.90;;;;;;5083960;28;20244;-52
2022/02/06 06:44:37;;;;;;;2.25;1.40;;;5.00;99.90;;;;;;5085123;28;20209;-51
2022/02/06 06:47:07;;;;;;;1.38;1.27;;;5.00;99.90;;;;;;5088396;28;20405;-46
2022/02/06 06:49:36;;;;;;;4.13;1.42;;;4.90;99.90;;;;;;5084010;28;20404;-45
2022/02/06 06:52:05;;;;;;;2.95;1.35;;;4.80;99.90;;;;;;5083466;28;20198;-47
2022/02/06 06:54:38;;;;;;;0.80;0.80;;;4.80;99.90;;;;;;5065392;28;20232;-45
2022/02/06 06:57:20;;;;;;;1.80;1.17;;;4.60;99.90;;;;;;5083504;28;20234;-50
2022/02/06 07:00:20;;;;;;;1.17;0.88;;;4.60;99.90;;;;;;5082787;28;20194;-45
2022/02/06 07:02:35;;;;;;;4.82;2.88;;;4.60;99.90;;;;;;5082821;28;20501;-47
2022/02/06 07:05:04;;;;;;;2.00;1.20;;;4.60;99.90;;;;;;5082710;28;20223;-46
2022/02/06 07:07:33;;;;;;;1.63;1.30;;;4.50;99.90;;;;;;5083033;28;20197;-48
2022/02/06 07:10:02;;;;;;;2.30;1.10;;;4.60;99.90;;;;;;5082731;28;20264;-48
2022/02/06 07:12:29;;;;;;;1.25;1.00;;;4.70;99.90;;;;;;5082742;28;20236;-47
2022/02/06 07:14:59;;;;;;;3.10;1.20;;;4.70;99.90;;;;;;5082500;28;20214;-50
2022/02/06 07:17:27;;;;;;;3.33;2.50;;;4.80;99.90;;;;;;5082904;28;20198;-46
2022/02/06 07:19:54;;;;;;;1.83;1.08;;;5.00;99.90;;;;;;5082666;28;20212;-47
2022/02/06 07:22:21;;;;;;;1.40;1.20;;;4.90;99.90;;;;;;5082512;28;20198;-49
2022/02/06 07:24:49;;;;;;;1.10;1.00;;;4.90;99.90;;;;;;5085157;28;20244;-49
2022/02/06 07:27:24;;;;;;;2.78;1.30;;;5.00;99.90;;;;;;5087650;28;20263;-49
2022/02/06 07:29:52;;;;;;;4.57;1.95;;;5.10;99.90;;;;;;5086848;28;20206;-51
2022/02/06 07:32:20;;;;;;;1.90;1.40;;;5.20;99.90;;;;;;5085068;28;20202;-45
2022/02/06 07:34:48;;;;;;;1.35;1.25;;;5.30;99.90;;;;;;5083033;28;20243;-46
2022/02/06 07:37:16;;;;;;;1.63;1.30;;;5.40;99.90;;;;;;5082727;28;20246;-53
2022/02/06 07:39:44;;;;;;;7.00;1.52;;;5.50;99.90;;;;;;5082391;28;20194;-48
2022/02/06 07:42:12;;;;;;;3.10;1.05;;;5.50;99.90;;;;;;5082397;28;20199;-50
2022/02/06 07:44:42;;;;;;;2.60;1.80;;;5.50;99.90;;;;;;5082602;28;20194;-49
2022/02/06 07:47:14;;;;;;;3.10;1.35;;;5.60;99.90;;;;;;5082460;28;20287;-45
2022/02/06 07:49:45;;;;;;;1.73;1.63;;;5.50;99.90;;;;;;5082666;28;20202;-51
2022/02/06 07:52:13;;;;;;;2.55;1.73;;;5.70;99.90;;;;;;5082618;28;20213;-50
2022/02/06 07:54:41;;;;;;;7.55;1.50;;;5.80;99.90;;;;;;5081732;28;20197;-53
2022/02/06 07:57:09;;;;;;;2.35;1.50;;;5.70;99.90;;;;;;5082071;28;20230;-48
2022/02/06 07:59:36;;;;;;;2.03;1.30;;;5.60;99.90;;;;;;5081919;28;20202;-47
2022/02/06 08:02:09;;;;;;;2.45;1.40;;;5.50;99.90;;;;;;5081815;28;20442;-46
2022/02/06 08:04:36;;;;;;;1.00;1.00;;;5.40;99.90;;;;;;5082044;28;20205;-46
2022/02/06 08:07:05;;;;;;;1.48;1.10;;;5.50;99.90;;;;;;5081397;28;20234;-47
2022/02/06 08:09:56;;;;;;;1.35;1.08;;;5.50;99.90;;;;;;5082410;28;20197;-49
2022/02/06 08:12:31;;;;;;;7.50;2.20;;;5.60;99.90;;;;;;5081814;28;20258;-49
2022/02/06 08:15:03;;;;;;;1.52;1.17;;;5.60;99.90;;;;;;5082007;28;20232;-50
2022/02/06 08:17:33;;;;;;;2.60;1.67;;;5.70;99.90;;;;;;5082074;28;20207;-49
2022/02/06 08:20:03;;;;;;;1.35;1.25;;;5.70;99.90;;;;;;5081930;28;20198;-55
2022/02/06 08:22:31;;;;;;;1.00;1.00;;;5.80;99.90;;;;;;5081416;28;20217;-47
2022/02/06 08:24:58;;;;;;;4.22;1.35;;;5.90;99.90;;;;;;5081814;28;20198;-47
2022/02/06 08:27:28;;;;;;;0.80;0.80;;;6.00;99.90;;;;;;5081939;28;20371;-45
2022/02/06 08:29:56;;;;;;;2.85;1.20;;;6.00;99.90;;;;;;5081736;28;20493;-51
2022/02/06 08:32:26;;;;;;;2.85;1.00;;;5.90;99.90;;;;;;5081581;28;20203;-50
2022/02/06 08:34:55;;;;;;;0.85;0.80;;;5.90;99.90;;;;;;5081784;28;20206;-46
2022/02/06 08:37:23;;;;;;;1.10;1.05;;;5.90;99.90;;;;;;5081256;28;20223;-52
2022/02/06 08:39:50;;;;;;;1.45;1.00;;;5.90;99.90;;;;;;5081564;28;20202;-48
2022/02/06 08:42:18;;;;;;;1.58;1.23;;;5.90;99.90;;;;;;5081105;28;20202;-50
2022/02/06 08:44:46;;;;;;;1.42;1.17;;;6.00;99.90;;;;;;5081309;28;20221;-46
2022/02/06 08:47:17;;;;;;;8.73;2.20;;;6.00;99.90;;;;;;5080917;28;20477;-52
2022/02/06 08:49:46;;;;;;;1.25;1.00;;;6.10;99.90;;;;;;5081578;28;20197;-51
2022/02/06 08:52:14;;;;;;;1.75;1.55;;;6.20;99.90;;;;;;5080908;28;20233;-48
2022/02/06 08:54:42;;;;;;;1.55;1.45;;;6.10;99.90;;;;;;5081705;28;20304;-52
2022/02/06 08:57:22;;;;;;;1.23;1.05;;;6.20;99.90;;;;;;5081165;28;20461;-52
2022/02/06 08:59:50;;;;;;;1.13;1.00;;;6.20;99.90;;;;;;5081005;28;20201;-51
2022/02/06 09:02:18;;;;;;;3.42;1.23;;;6.20;99.90;;;;;;5080966;28;20199;-50
2022/02/06 09:04:47;;;;;;;2.80;1.40;;;6.20;99.90;;;;;;5080439;28;20198;-53
2022/02/06 09:07:16;;;;;;;0.70;0.70;;;6.20;99.90;;;;;;5081063;28;20226;-51
2022/02/06 09:09:49;;;;;;;1.80;1.02;;;6.20;99.90;;;;;;5081048;28;20389;-50
2022/02/06 09:12:17;;;;;;;1.30;1.20;;;6.20;99.90;;;;;;5080599;28;20195;-49
2022/02/06 09:14:47;;;;;;;1.23;1.00;;;6.30;99.90;;;;;;5081290;28;20202;-51
2022/02/06 09:17:15;;;;;;;2.55;1.50;;;6.30;99.90;;;;;;5080868;28;20218;-46
2022/02/06 09:19:42;;;;;;;2.00;1.00;;;6.40;99.90;;;;;;5080874;28;20205;-45
2022/02/06 09:22:10;;;;;;;4.63;1.80;;;6.40;99.90;;;;;;5080630;28;20420;-45
2022/02/06 09:24:38;;;;;;;2.15;1.92;;;6.40;99.90;;;;;;5080313;28;20199;-47
2022/02/06 09:27:10;;;;;;;1.83;1.20;;;6.60;99.90;;;;;;5080803;28;20230;-47
2022/02/06 09:29:40;;;;;;;3.22;1.50;;;6.60;99.90;;;;;;5080738;28;20207;-50
2022/02/06 09:37:26;;;;;;;1.88;1.65;;;6.70;99.90;;;;;;5080616;28;20222;-46
2022/02/06 09:39:56;;;;;;;3.15;1.88;;;6.80;99.90;;;;;;5079778;28;20311;-47
2022/02/06 09:42:26;;;;;;;2.88;1.60;;;6.60;99.90;;;;;;5079813;28;20387;-47
2022/02/06 09:44:55;;;;;;;2.13;1.30;;;6.70;99.90;;;;;;5079731;28;20198;-48
2022/02/06 09:47:27;;;;;;;3.28;2.05;;;6.70;99.90;;;;;;5079615;28;20229;-47
2022/02/06 09:49:55;;;;;;;1.92;1.25;;;6.60;99.90;;;;;;5080072;28;20202;-48
2022/02/06 09:52:25;;;;;;;1.25;1.15;;;6.70;99.90;;;;;;5079865;28;20509;-51
2022/02/06 09:55:09;;;;;;;2.03;1.58;;;6.70;99.90;;;;;;5079865;28;20265;-47
2022/02/06 09:57:52;;;;;;;1.85;1.65;;;6.80;99.90;;;;;;5080007;28;20202;-49
2022/02/06 10:00:23;;;;;;;1.92;1.50;;;6.80;99.90;;;;;;5079616;28;20202;-49
2022/02/06 10:02:54;;;;;;;1.38;1.27;;;6.70;99.90;;;;;;5079910;28;20198;-50
2022/02/06 10:05:22;;;;;;;1.15;1.08;;;6.80;99.90;;;;;;5079394;28;20289;-50
2022/02/06 10:08:04;;;;;;;3.78;1.50;;;6.80;99.90;;;;;;5079777;28;20265;-51
2022/02/06 10:10:32;;;;;;;2.05;1.40;;;6.80;99.90;;;;;;5079393;28;20348;-47
2022/02/06 10:13:01;;;;;;;4.05;1.80;;;6.70;99.90;;;;;;5079739;28;20232;-49
2022/02/06 10:15:29;;;;;;;2.17;1.55;;;6.80;99.90;;;;;;5079800;28;20219;-45
2022/02/06 10:17:57;;;;;;;2.70;1.40;;;7.00;99.90;;;;;;5083578;28;20241;-51
2022/02/06 10:20:30;;;;;;;3.25;2.00;;;7.00;99.90;;;;;;5083380;28;20198;-48
2022/02/06 10:23:05;;;;;;;3.42;1.55;;;7.10;99.90;;;;;;5083675;28;20345;-50
2022/02/06 10:25:47;;;;;;;2.60;2.00;;;7.20;99.90;;;;;;5083660;28;20413;-46
2022/02/06 10:28:36;;;;;;;5.47;3.03;;;7.30;99.90;;;;;;5083897;28;20201;-47
2022/02/06 10:31:05;;;;;;;1.33;1.23;;;7.30;99.90;;;;;;5083207;28;20219;-54
2022/02/06 10:33:52;;;;;;;1.70;1.50;;;7.50;99.90;;;;;;5083414;28;20203;-48
2022/02/06 10:36:30;;;;;;;7.07;1.60;;;7.50;99.90;;;;;;5083164;28;20226;-50
2022/02/06 10:39:11;;;;;;;1.38;1.13;;;7.40;99.90;;;;;;5083149;28;20198;-51
2022/02/06 10:41:45;;;;;;;3.72;1.58;;;7.40;99.90;;;;;;5083078;28;20556;-46
2022/02/06 10:44:13;;;;;;;2.58;1.35;;;7.30;99.90;;;;;;5083792;28;20205;-51
2022/02/06 10:46:58;;;;;;;2.13;1.92;;;7.40;99.90;;;;;;5082953;28;20253;-52
2022/02/06 10:49:26;;;;;;;2.13;1.80;;;7.50;99.90;;;;;;5083356;28;20403;-50
2022/02/06 10:52:02;;;;;;;2.33;1.60;;;7.60;99.90;;;;;;5065361;28;20513;-52
2022/02/06 10:54:28;;;;;;;5.82;1.77;;;7.60;99.90;;;;;;5083457;28;20194;-47
2022/02/06 10:57:12;;;;;;;5.47;1.50;;;7.60;99.90;;;;;;5082719;28;20373;-47
2022/02/06 10:59:52;;;;;;;2.03;1.50;;;7.80;99.90;;;;;;5082974;28;20199;-50
2022/02/06 11:02:31;;;;;;;3.05;2.03;;;7.70;99.90;;;;;;5082689;28;20199;-48
2022/02/06 11:05:15;;;;;;;1.83;1.73;;;7.80;99.90;;;;;;5083354;28;20394;-48
2022/02/06 11:08:02;;;;;;;1.40;1.30;;;7.80;99.90;;;;;;5082791;28;20555;-46
2022/02/06 11:10:35;;;;;;;1.70;1.60;;;7.70;99.90;;;;;;5082977;28;20264;-48
2022/02/06 11:13:06;;;;;;;2.20;1.48;;;7.70;99.90;;;;;;5083035;28;20217;-45
2022/02/06 11:15:44;;;;;;;2.40;1.40;;;7.60;99.90;;;;;;5082867;28;20525;-48
2022/02/06 11:18:16;;;;;;;1.45;1.17;;;7.50;99.90;;;;;;5082999;28;20206;-48
2022/02/06 11:21:05;;;;;;;2.15;1.67;;;7.70;99.90;;;;;;5082555;28;20270;-52
2022/02/06 11:23:39;;;;;;;1.00;1.00;;;7.80;99.90;;;;;;5082403;28;20194;-48
2022/02/06 11:26:10;;;;;;;3.17;1.40;;;7.90;99.90;;;;;;5082590;28;20464;-48
2022/02/06 11:28:40;;;;;;;1.90;1.42;;;8.00;99.90;;;;;;5081852;28;20440;-51
2022/02/06 11:31:07;;;;;;;2.05;1.58;;;8.20;99.90;;;;;;5082590;28;20501;-46
2022/02/06 11:33:35;;;;;;;1.48;1.15;;;8.40;99.90;;;;;;5083281;28;20195;-46
2022/02/06 11:36:14;;;;;;;2.45;1.67;;;8.60;99.90;;;;;;5083758;28;20261;-51
2022/02/06 11:45:26;;;;;;;1.60;1.35;;;8.70;99.90;;;;;;5082125;28;20398;-52
2022/02/06 11:48:03;;;;;;;1.80;1.50;;;8.60;99.90;;;;;;5081780;28;20480;-46
2022/02/06 11:50:32;;;;;;;1.40;1.30;;;8.60;99.90;;;;;;5082324;28;20198;-50
2022/02/06 11:53:04;;;;;;;1.35;1.25;;;8.60;99.90;;;;;;5082649;28;20202;-47
2022/02/06 11:55:34;;;;;;;1.67;1.10;;;8.50;99.90;;;;;;5082464;28;20441;-45
2022/02/06 11:58:23;;;;;;;1.35;1.25;;;8.60;99.90;;;;;;5081432;28;20506;-50
2022/02/06 12:01:14;;;;;;;1.80;1.60;;;8.60;99.90;;;;;;5072530;28;20207;-51
2022/02/06 12:04:06;;;;;;;3.15;1.50;;;8.40;99.90;;;;;;5070035;28;20199;-46
2022/02/06 12:06:37;;;;;;;1.63;1.15;;;8.30;99.90;;;;;;5076611;28;20229;-48
2022/02/06 12:09:04;;;;;;;1.98;1.80;;;8.30;99.90;;;;;;5080975;28;20506;-46
2022/02/06 12:11:34;;;;;;;1.27;1.17;;;8.20;99.90;;;;;;5061999;28;20383;-46
2022/02/06 12:14:24;;;;;;;1.23;1.15;;;8.20;99.90;;;;;;5060986;28;20195;-53
2022/02/06 12:18:05;;;;;;;2.22;1.80;;;8.20;99.90;;;;;;5063336;28;20219;-50
2022/02/06 12:20:03;;;;;;;2.10;1.90;;;8.20;99.90;;;;;;5075133;28;20378;-47
2022/02/06 12:22:36;;;;;;;1.05;0.95;;;8.20;99.90;;;;;;5060870;28;20252;-51
2022/02/06 12:25:36;;;;;;;2.80;1.42;;;8.20;99.90;;;;;;5080973;28;20202;-46
2022/02/06 12:28:18;;;;;;;2.92;1.10;;;8.30;99.90;;;;;;5080656;28;20223;-48
2022/02/06 12:30:55;;;;;;;1.33;1.17;;;8.30;99.90;;;;;;5081042;28;20413;-48
2022/02/06 12:33:32;;;;;;;3.85;2.42;;;8.40;99.90;;;;;;5080642;28;20481;-51
2022/02/06 12:38:45;;;;;;;1.25;0.93;;;8.30;99.90;;;;;;5080700;28;20204;-46
2022/02/06 12:41:17;;;;;;;4.13;1.42;;;8.30;99.90;;;;;;5079319;28;20289;-48
2022/02/06 12:43:52;;;;;;;1.90;1.30;;;8.30;99.90;;;;;;5080595;28;20658;-47
2022/02/06 12:46:24;;;;;;;2.13;1.90;;;8.40;99.90;;;;;;5079415;28;20222;-50
2022/02/06 12:48:52;;;;;;;1.98;1.75;;;8.40;99.90;;;;;;5081036;28;20199;-49
2022/02/06 12:51:27;;;;;;;5.13;2.20;;;8.50;99.90;;;;;;5080268;28;20195;-48
2022/02/06 12:54:12;;;;;;;1.75;1.63;;;8.60;99.90;;;;;;5080363;28;20198;-52
2022/02/06 12:56:42;;;;;;;3.20;1.70;;;8.50;99.90;;;;;;5081379;28;20230;-46
2022/02/06 12:59:15;;;;;;;2.08;1.35;;;8.70;99.90;;;;;;5081130;28;20222;-47
2022/02/06 13:01:45;;;;;;;1.70;1.40;;;8.90;99.90;;;;;;5081434;28;20219;-47
2022/02/06 13:04:17;;;;;;;1.83;1.67;;;9.10;99.90;;;;;;5082211;28;20531;-55
2022/02/06 13:06:51;;;;;;;1.92;0.90;;;9.00;99.90;;;;;;5085981;28;20221;-48
2022/02/06 13:09:25;;;;;;;3.60;1.13;;;8.90;99.90;;;;;;5077989;28;20199;-47
2022/02/06 13:15:19;;;;;;;2.58;1.92;;;8.70;99.90;;;;;;5074733;28;20209;-49
2022/02/06 13:20:41;;;;;;;1.90;1.35;;;8.80;99.90;;;;;;5065854;28;20246;-48
2022/02/06 13:23:21;;;;;;;2.03;1.10;;;8.70;99.90;;;;;;5064752;28;20199;-48
2022/02/06 13:26:15;;;;;;;2.22;1.13;;;8.60;99.90;;;;;;5063478;28;20242;-51
2022/02/06 13:28:59;;;;;;;2.90;1.48;;;8.40;99.90;;;;;;5062252;28;20215;-51
2022/02/06 13:31:43;;;;;;;2.83;1.63;;;8.30;99.90;;;;;;5061633;28;20442;-47
2022/02/06 13:36:45;;;;;;;3.30;2.10;;;8.30;99.90;;;;;;5081114;28;20241;-48
2022/02/06 13:39:25;;;;;;;5.28;2.55;;;8.40;99.90;;;;;;5080537;28;20206;-55
2022/02/06 13:41:52;;;;;;;5.47;2.17;;;8.50;99.90;;;;;;5080296;28;20198;-53
2022/02/06 13:44:23;;;;;;;2.90;2.05;;;8.60;99.90;;;;;;5080987;28;20208;-54
2022/02/06 13:46:54;;;;;;;4.45;2.60;;;8.50;99.90;;;;;;5080251;28;20230;-55
2022/02/06 13:49:34;;;;;;;2.22;2.00;;;8.50;99.90;;;;;;5073404;28;20541;-48
2022/02/06 13:52:05;;;;;;;1.83;1.40;;;8.50;99.90;;;;;;5070540;28;20274;-53
2022/02/06 13:54:36;;;;;;;4.32;1.80;;;8.50;99.90;;;;;;5071705;28;20196;-49
2022/02/06 13:57:06;;;;;;;4.28;1.77;;;8.50;99.90;;;;;;5073911;28;20238;-46
2022/02/06 13:59:44;;;;;;;2.60;1.52;;;8.50;99.90;;;;;;5069177;28;20207;-45
2022/02/06 14:02:15;;;;;;;2.85;1.70;;;8.50;99.90;;;;;;5073470;28;20264;-49
2022/02/06 14:04:48;;;;;;;3.53;1.50;;;8.50;99.90;;;;;;5070295;28;20200;-46
2022/02/06 14:07:22;;;;;;;2.00;1.90;;;8.50;99.90;;;;;;5073306;28;20240;-47
2022/02/06 14:10:22;;;;;;;2.55;2.05;;;8.40;99.90;;;;;;5060004;28;20201;-48
2022/02/06 14:12:53;;;;;;;1.63;1.50;;;8.40;99.90;;;;;;5076573;28;20393;-52
2022/02/06 14:15:25;;;;;;;3.63;1.58;;;8.40;99.90;;;;;;5079573;28;20195;-47
2022/02/06 14:17:55;;;;;;;3.17;1.95;;;8.30;99.90;;;;;;5079113;28;20191;-54
2022/02/06 14:20:25;;;;;;;2.15;1.95;;;8.30;99.90;;;;;;5079345;28;20313;-46
2022/02/06 14:23:02;;;;;;;3.85;2.10;;;8.20;99.90;;;;;;5079145;28;20203;-51
2022/02/06 14:25:31;;;;;;;3.08;2.13;;;8.10;99.90;;;;;;5079321;28;20219;-46
2022/02/06 14:28:26;;;;;;;2.70;1.83;;;8.10;99.90;;;;;;5078543;28;20291;-48
2022/02/06 14:30:54;;;;;;;2.47;1.60;;;8.10;99.90;;;;;;5077320;28;20183;-49
2022/02/06 14:33:23;;;;;;;2.85;2.53;;;7.90;99.90;;;;;;5061527;28;20195;-50
2022/02/06 14:36:02;;;;;;;2.70;1.58;;;7.80;99.90;;;;;;5078731;28;20533;-50
2022/02/06 14:38:46;;;;;;;3.42;1.33;;;7.80;99.90;;;;;;5078972;28;20370;-49
2022/02/06 14:43:45;;;;;;;4.85;2.28;;;7.70;99.90;;;;;;5067337;28;20309;-51
2022/02/06 14:46:18;;;;;;;2.65;1.42;;;7.70;99.90;;;;;;5077815;28;20218;-48
2022/02/06 14:48:45;;;;;;;3.47;3.20;;;7.70;99.90;;;;;;5077693;28;20226;-47
2022/02/06 14:51:22;;;;;;;2.42;1.75;;;7.60;99.90;;;;;;5067142;28;20191;-50
2022/02/06 14:53:55;;;;;;;1.60;1.30;;;7.60;99.90;;;;;;5071150;28;20191;-45
2022/02/06 14:56:26;;;;;;;2.40;1.45;;;7.50;99.90;;;;;;5071687;28;20699;-46
2022/02/06 14:58:53;;;;;;;2.70;1.73;;;7.50;99.90;;;;;;5078620;28;20195;-53
2022/02/06 15:01:21;;;;;;;2.45;1.90;;;7.50;99.90;;;;;;5078463;28;20394;-46
2022/02/06 15:03:48;;;;;;;1.60;1.27;;;7.50;99.90;;;;;;5080640;28;20222;-47
2022/02/06 15:06:16;;;;;;;1.92;1.77;;;7.50;99.90;;;;;;5076291;28;20526;-50
2022/02/06 15:08:43;;;;;;;1.48;1.38;;;7.50;99.90;;;;;;5081914;28;20536;-49
2022/02/06 15:11:11;;;;;;;2.53;1.85;;;7.50;99.90;;;;;;5081980;28;20232;-50
2022/02/06 15:13:38;;;;;;;1.48;1.20;;;7.40;99.90;;;;;;5081105;28;20195;-45
2022/02/06 15:16:13;;;;;;;1.52;1.38;;;7.40;99.90;;;;;;5082709;28;20252;-50
2022/02/06 15:18:52;;;;;;;3.75;1.63;;;7.40;99.90;;;;;;5083053;28;20210;-46
2022/02/06 15:21:19;;;;;;;3.00;1.63;;;7.30;99.90;;;;;;5082312;28;20191;-47
2022/02/06 15:23:47;;;;;;;2.55;1.50;;;7.30;99.90;;;;;;5081849;28;20213;-52
2022/02/06 15:26:15;;;;;;;1.65;1.55;;;7.30;99.90;;;;;;5081384;28;20230;-52
2022/02/06 15:28:43;;;;;;;1.20;1.10;;;7.30;99.90;;;;;;5082012;28;20223;-45
2022/02/06 15:31:10;;;;;;;3.13;1.48;;;7.30;99.90;;;;;;5081106;28;20285;-51
2022/02/06 15:33:38;;;;;;;2.47;2.28;;;7.20;99.90;;;;;;5071959;28;20196;-49
2022/02/06 15:36:07;;;;;;;1.52;1.42;;;7.20;99.90;;;;;;5080864;28;20219;-49
2022/02/06 15:38:37;;;;;;;1.80;1.70;;;7.10;99.90;;;;;;5081352;28;20206;-52
2022/02/06 15:41:06;;;;;;;2.80;1.35;;;7.10;99.90;;;;;;5072779;28;20199;-51
2022/02/06 15:43:33;;;;;;;4.22;1.60;;;7.10;99.90;;;;;;5071191;28;20643;-48
2022/02/06 15:46:02;;;;;;;4.57;1.70;;;7.10;99.90;;;;;;5075497;28;20222;-54
2022/02/06 15:48:29;;;;;;;3.45;1.20;;;7.00;99.90;;;;;;5072866;28;20541;-49
2022/02/06 15:50:57;;;;;;;1.55;1.45;;;7.00;99.90;;;;;;5078336;28;20269;-50
2022/02/06 15:53:24;;;;;;;2.67;1.63;;;7.00;99.90;;;;;;5080982;28;20195;-49
2022/02/06 15:55:52;;;;;;;1.60;1.50;;;7.00;99.90;;;;;;5077593;28;20223;-50
2022/02/06 15:58:22;;;;;;;1.60;1.20;;;7.00;99.90;;;;;;5068850;28;20214;-52
2022/02/06 16:00:49;;;;;;;4.00;1.58;;;6.90;99.90;;;;;;5072774;28;20496;-56